sensor_id;sensor_type;location;lat;lon;timestamp;P1;durP1;ratioP1;P2;durP2;ratioP2
4430;SDS011;2228;48.140;11.488;2023-07-13T00:00:10;11.88;;;6.05;;
4430;SDS011;2228;48.140;11.488;2023-07-13T00:02:41;7.47;;;5.60;;
4430;SDS011;2228;48.140;11.488;2023-07-13T00:05:08;8.60;;;5.03;;
4430;SDS011;2228;48.140;11.488;2023-07-13T00:07:36;9.75;;;5.82;;
4430;SDS011;2228;48.140;11.488;2023-07-13T00:10:05;11.40;;;5.60;;
4430;SDS011;2228;48.140;11.488;2023-07-13T00:12:33;6.80;;;5.05;;
4430;SDS011;2228;48.140;11.488;2023-07-13T00:15:04;7.73;;;5.40;;
4430;SDS011;2228;48.140;11.488;2023-07-13T00:17:33;6.80;;;4.93;;
4430;SDS011;2228;48.140;11.488;2023-07-13T00:20:00;7.43;;;5.00;;
4430;SDS011;2228;48.140;11.488;2023-07-13T00:22:29;7.55;;;5.00;;
4430;SDS011;2228;48.140;11.488;2023-07-13T00:24:56;8.80;;;4.60;;
4430;SDS011;2228;48.140;11.488;2023-07-13T00:27:24;5.50;;;4.20;;
4430;SDS011;2228;48.140;11.488;2023-07-13T00:29:52;8.07;;;4.30;;
4430;SDS011;2228;48.140;11.488;2023-07-13T00:32:19;6.90;;;4.27;;
4430;SDS011;2228;48.140;11.488;2023-07-13T00:34:46;6.75;;;4.50;;
4430;SDS011;2228;48.140;11.488;2023-07-13T00:37:13;5.90;;;4.30;;
4430;SDS011;2228;48.140;11.488;2023-07-13T00:39:40;8.50;;;3.93;;
4430;SDS011;2228;48.140;11.488;2023-07-13T00:42:07;8.68;;;3.95;;
4430;SDS011;2228;48.140;11.488;2023-07-13T00:44:35;11.18;;;4.68;;
4430;SDS011;2228;48.140;11.488;2023-07-13T00:47:04;5.05;;;4.03;;
4430;SDS011;2228;48.140;11.488;2023-07-13T00:49:32;6.13;;;3.85;;
4430;SDS011;2228;48.140;11.488;2023-07-13T00:52:02;5.03;;;4.00;;
4430;SDS011;2228;48.140;11.488;2023-07-13T00:54:33;8.70;;;4.20;;
4430;SDS011;2228;48.140;11.488;2023-07-13T00:57:03;6.40;;;4.50;;
4430;SDS011;2228;48.140;11.488;2023-07-13T00:59:33;6.10;;;4.20;;
4430;SDS011;2228;48.140;11.488;2023-07-13T01:02:05;7.27;;;4.37;;
4430;SDS011;2228;48.140;11.488;2023-07-13T01:04:32;6.13;;;4.18;;
4430;SDS011;2228;48.140;11.488;2023-07-13T01:06:59;10.45;;;4.32;;
4430;SDS011;2228;48.140;11.488;2023-07-13T01:09:26;7.38;;;4.00;;
4430;SDS011;2228;48.140;11.488;2023-07-13T01:11:53;9.75;;;4.13;;
4430;SDS011;2228;48.140;11.488;2023-07-13T01:14:20;9.43;;;4.15;;
4430;SDS011;2228;48.140;11.488;2023-07-13T01:16:49;6.57;;;4.47;;
4430;SDS011;2228;48.140;11.488;2023-07-13T01:19:21;4.57;;;3.60;;
4430;SDS011;2228;48.140;11.488;2023-07-13T01:22:02;4.97;;;3.80;;
4430;SDS011;2228;48.140;11.488;2023-07-13T01:24:30;6.40;;;4.32;;
4430;SDS011;2228;48.140;11.488;2023-07-13T01:26:57;4.55;;;3.42;;
4430;SDS011;2228;48.140;11.488;2023-07-13T01:29:24;5.97;;;3.53;;
4430;SDS011;2228;48.140;11.488;2023-07-13T01:31:51;6.95;;;3.38;;
4430;SDS011;2228;48.140;11.488;2023-07-13T01:34:18;6.55;;;3.42;;
4430;SDS011;2228;48.140;11.488;2023-07-13T01:36:45;5.28;;;3.20;;
4430;SDS011;2228;48.140;11.488;2023-07-13T01:39:13;4.80;;;3.20;;
4430;SDS011;2228;48.140;11.488;2023-07-13T01:41:42;4.60;;;3.10;;
4430;SDS011;2228;48.140;11.488;2023-07-13T01:44:09;5.93;;;3.10;;
4430;SDS011;2228;48.140;11.488;2023-07-13T01:46:35;4.10;;;3.30;;
4430;SDS011;2228;48.140;11.488;2023-07-13T01:49:02;4.75;;;2.90;;
4430;SDS011;2228;48.140;11.488;2023-07-13T01:51:29;8.30;;;3.53;;
4430;SDS011;2228;48.140;11.488;2023-07-13T01:53:56;6.88;;;3.70;;
4430;SDS011;2228;48.140;11.488;2023-07-13T01:56:24;6.03;;;4.00;;
4430;SDS011;2228;48.140;11.488;2023-07-13T01:58:51;7.50;;;4.00;;
4430;SDS011;2228;48.140;11.488;2023-07-13T02:01:18;5.80;;;4.32;;
4430;SDS011;2228;48.140;11.488;2023-07-13T02:03:45;7.40;;;4.88;;
4430;SDS011;2228;48.140;11.488;2023-07-13T02:06:12;8.27;;;4.57;;
4430;SDS011;2228;48.140;11.488;2023-07-13T02:08:40;7.20;;;5.30;;
4430;SDS011;2228;48.140;11.488;2023-07-13T02:11:07;8.80;;;4.80;;
4430;SDS011;2228;48.140;11.488;2023-07-13T02:13:36;7.30;;;4.80;;
4430;SDS011;2228;48.140;11.488;2023-07-13T02:16:03;9.52;;;5.50;;
4430;SDS011;2228;48.140;11.488;2023-07-13T02:18:30;7.80;;;4.70;;
4430;SDS011;2228;48.140;11.488;2023-07-13T02:20:57;6.70;;;4.60;;
4430;SDS011;2228;48.140;11.488;2023-07-13T02:23:23;8.60;;;4.85;;
4430;SDS011;2228;48.140;11.488;2023-07-13T02:25:53;7.30;;;4.55;;
4430;SDS011;2228;48.140;11.488;2023-07-13T02:28:21;7.65;;;4.53;;
4430;SDS011;2228;48.140;11.488;2023-07-13T02:30:49;10.25;;;5.82;;
4430;SDS011;2228;48.140;11.488;2023-07-13T02:33:16;10.55;;;4.22;;
4430;SDS011;2228;48.140;11.488;2023-07-13T02:35:43;10.18;;;4.50;;
4430;SDS011;2228;48.140;11.488;2023-07-13T02:38:10;5.93;;;4.22;;
4430;SDS011;2228;48.140;11.488;2023-07-13T02:40:36;5.68;;;4.70;;
4430;SDS011;2228;48.140;11.488;2023-07-13T02:43:03;9.23;;;4.22;;
4430;SDS011;2228;48.140;11.488;2023-07-13T02:45:30;10.18;;;4.90;;
4430;SDS011;2228;48.140;11.488;2023-07-13T02:47:58;7.87;;;4.33;;
4430;SDS011;2228;48.140;11.488;2023-07-13T02:50:26;9.52;;;5.60;;
4430;SDS011;2228;48.140;11.488;2023-07-13T02:52:53;8.25;;;5.00;;
4430;SDS011;2228;48.140;11.488;2023-07-13T02:55:20;8.25;;;5.45;;
4430;SDS011;2228;48.140;11.488;2023-07-13T02:57:48;6.03;;;4.75;;
4430;SDS011;2228;48.140;11.488;2023-07-13T03:00:15;8.23;;;5.40;;
4430;SDS011;2228;48.140;11.488;2023-07-13T03:02:43;8.10;;;5.20;;
4430;SDS011;2228;48.140;11.488;2023-07-13T03:05:11;9.55;;;4.95;;
4430;SDS011;2228;48.140;11.488;2023-07-13T03:07:40;9.98;;;5.05;;
4430;SDS011;2228;48.140;11.488;2023-07-13T03:10:07;7.57;;;4.78;;
4430;SDS011;2228;48.140;11.488;2023-07-13T03:12:35;6.38;;;4.00;;
4430;SDS011;2228;48.140;11.488;2023-07-13T03:15:02;10.75;;;4.65;;
4430;SDS011;2228;48.140;11.488;2023-07-13T03:17:29;7.40;;;3.70;;
4430;SDS011;2228;48.140;11.488;2023-07-13T03:19:57;8.15;;;3.60;;
4430;SDS011;2228;48.140;11.488;2023-07-13T03:22:25;6.20;;;3.90;;
4430;SDS011;2228;48.140;11.488;2023-07-13T03:24:52;7.82;;;4.00;;
4430;SDS011;2228;48.140;11.488;2023-07-13T03:27:20;8.85;;;3.75;;
4430;SDS011;2228;48.140;11.488;2023-07-13T03:29:47;6.65;;;4.03;;
4430;SDS011;2228;48.140;11.488;2023-07-13T03:32:14;7.50;;;4.80;;
4430;SDS011;2228;48.140;11.488;2023-07-13T03:34:41;8.43;;;4.38;;
4430;SDS011;2228;48.140;11.488;2023-07-13T03:37:08;7.85;;;4.47;;
4430;SDS011;2228;48.140;11.488;2023-07-13T03:39:36;9.25;;;4.18;;
4430;SDS011;2228;48.140;11.488;2023-07-13T03:42:03;6.60;;;4.43;;
4430;SDS011;2228;48.140;11.488;2023-07-13T03:44:30;6.70;;;4.70;;
4430;SDS011;2228;48.140;11.488;2023-07-13T03:46:57;7.57;;;4.00;;
4430;SDS011;2228;48.140;11.488;2023-07-13T03:49:24;10.48;;;4.75;;
4430;SDS011;2228;48.140;11.488;2023-07-13T03:51:51;12.80;;;5.32;;
4430;SDS011;2228;48.140;11.488;2023-07-13T03:54:18;7.80;;;4.60;;
4430;SDS011;2228;48.140;11.488;2023-07-13T03:56:46;6.68;;;4.50;;
4430;SDS011;2228;48.140;11.488;2023-07-13T03:59:13;6.72;;;4.43;;
4430;SDS011;2228;48.140;11.488;2023-07-13T04:01:40;8.60;;;4.70;;
4430;SDS011;2228;48.140;11.488;2023-07-13T04:04:07;8.02;;;5.00;;
4430;SDS011;2228;48.140;11.488;2023-07-13T04:06:33;5.50;;;4.20;;
4430;SDS011;2228;48.140;11.488;2023-07-13T04:09:01;9.40;;;5.03;;
4430;SDS011;2228;48.140;11.488;2023-07-13T04:11:31;7.10;;;4.60;;
4430;SDS011;2228;48.140;11.488;2023-07-13T04:14:00;9.23;;;4.45;;
4430;SDS011;2228;48.140;11.488;2023-07-13T04:16:27;9.10;;;5.00;;
4430;SDS011;2228;48.140;11.488;2023-07-13T04:18:55;9.17;;;5.17;;
4430;SDS011;2228;48.140;11.488;2023-07-13T04:21:25;10.32;;;4.95;;
4430;SDS011;2228;48.140;11.488;2023-07-13T04:23:53;7.20;;;4.90;;
4430;SDS011;2228;48.140;11.488;2023-07-13T04:26:20;9.50;;;4.88;;
4430;SDS011;2228;48.140;11.488;2023-07-13T04:28:47;9.27;;;4.87;;
4430;SDS011;2228;48.140;11.488;2023-07-13T04:31:16;7.55;;;4.50;;
4430;SDS011;2228;48.140;11.488;2023-07-13T04:33:43;9.60;;;4.57;;
4430;SDS011;2228;48.140;11.488;2023-07-13T04:36:10;7.22;;;4.80;;
4430;SDS011;2228;48.140;11.488;2023-07-13T04:38:37;10.05;;;5.03;;
4430;SDS011;2228;48.140;11.488;2023-07-13T04:41:04;9.82;;;5.15;;
4430;SDS011;2228;48.140;11.488;2023-07-13T04:43:34;8.18;;;5.18;;
4430;SDS011;2228;48.140;11.488;2023-07-13T04:46:05;8.00;;;4.72;;
4430;SDS011;2228;48.140;11.488;2023-07-13T04:48:35;10.93;;;5.60;;
4430;SDS011;2228;48.140;11.488;2023-07-13T04:51:02;7.78;;;4.55;;
4430;SDS011;2228;48.140;11.488;2023-07-13T04:53:29;8.13;;;4.50;;
4430;SDS011;2228;48.140;11.488;2023-07-13T04:55:57;6.00;;;3.73;;
4430;SDS011;2228;48.140;11.488;2023-07-13T04:58:24;5.10;;;3.60;;
4430;SDS011;2228;48.140;11.488;2023-07-13T05:00:51;5.43;;;3.30;;
4430;SDS011;2228;48.140;11.488;2023-07-13T05:03:19;5.32;;;3.88;;
4430;SDS011;2228;48.140;11.488;2023-07-13T05:05:55;4.70;;;3.42;;
4430;SDS011;2228;48.140;11.488;2023-07-13T05:08:23;5.60;;;3.78;;
4430;SDS011;2228;48.140;11.488;2023-07-13T05:10:49;5.27;;;3.90;;
4430;SDS011;2228;48.140;11.488;2023-07-13T05:13:17;7.88;;;3.40;;
4430;SDS011;2228;48.140;11.488;2023-07-13T05:15:44;6.63;;;3.70;;
4430;SDS011;2228;48.140;11.488;2023-07-13T05:18:11;6.80;;;4.00;;
4430;SDS011;2228;48.140;11.488;2023-07-13T05:20:38;5.78;;;3.70;;
4430;SDS011;2228;48.140;11.488;2023-07-13T05:23:06;4.75;;;3.40;;
4430;SDS011;2228;48.140;11.488;2023-07-13T05:25:33;7.70;;;3.92;;
4430;SDS011;2228;48.140;11.488;2023-07-13T05:28:00;10.70;;;3.70;;
4430;SDS011;2228;48.140;11.488;2023-07-13T05:30:26;9.60;;;3.90;;
4430;SDS011;2228;48.140;11.488;2023-07-13T05:32:53;7.85;;;4.10;;
4430;SDS011;2228;48.140;11.488;2023-07-13T05:35:20;6.13;;;3.97;;
4430;SDS011;2228;48.140;11.488;2023-07-13T05:37:47;5.15;;;3.83;;
4430;SDS011;2228;48.140;11.488;2023-07-13T05:40:15;8.27;;;4.03;;
4430;SDS011;2228;48.140;11.488;2023-07-13T05:42:42;8.10;;;3.90;;
4430;SDS011;2228;48.140;11.488;2023-07-13T05:45:09;10.30;;;4.25;;
4430;SDS011;2228;48.140;11.488;2023-07-13T05:47:36;6.47;;;4.00;;
4430;SDS011;2228;48.140;11.488;2023-07-13T05:50:03;6.13;;;4.07;;
4430;SDS011;2228;48.140;11.488;2023-07-13T05:52:30;10.70;;;4.15;;
4430;SDS011;2228;48.140;11.488;2023-07-13T05:54:59;9.77;;;4.50;;
4430;SDS011;2228;48.140;11.488;2023-07-13T05:57:27;5.60;;;4.10;;
4430;SDS011;2228;48.140;11.488;2023-07-13T05:59:54;6.25;;;4.10;;
4430;SDS011;2228;48.140;11.488;2023-07-13T06:02:21;4.97;;;3.90;;
4430;SDS011;2228;48.140;11.488;2023-07-13T06:04:48;5.72;;;3.30;;
4430;SDS011;2228;48.140;11.488;2023-07-13T06:07:15;8.02;;;3.58;;
4430;SDS011;2228;48.140;11.488;2023-07-13T06:09:42;5.50;;;3.17;;
4430;SDS011;2228;48.140;11.488;2023-07-13T06:12:09;5.10;;;3.10;;
4430;SDS011;2228;48.140;11.488;2023-07-13T06:14:37;5.05;;;3.10;;
4430;SDS011;2228;48.140;11.488;2023-07-13T06:17:04;5.65;;;3.15;;
4430;SDS011;2228;48.140;11.488;2023-07-13T06:19:31;4.40;;;2.92;;
4430;SDS011;2228;48.140;11.488;2023-07-13T06:21:58;8.20;;;2.80;;
4430;SDS011;2228;48.140;11.488;2023-07-13T06:24:26;6.47;;;2.95;;
4430;SDS011;2228;48.140;11.488;2023-07-13T06:26:53;4.22;;;2.40;;
4430;SDS011;2228;48.140;11.488;2023-07-13T06:29:20;6.10;;;2.65;;
4430;SDS011;2228;48.140;11.488;2023-07-13T06:31:48;4.40;;;2.40;;
4430;SDS011;2228;48.140;11.488;2023-07-13T06:34:15;3.72;;;2.42;;
4430;SDS011;2228;48.140;11.488;2023-07-13T06:36:42;7.05;;;2.13;;
4430;SDS011;2228;48.140;11.488;2023-07-13T06:39:09;7.50;;;2.40;;
4430;SDS011;2228;48.140;11.488;2023-07-13T06:41:36;4.95;;;2.47;;
4430;SDS011;2228;48.140;11.488;2023-07-13T06:44:04;3.90;;;2.30;;
4430;SDS011;2228;48.140;11.488;2023-07-13T06:46:31;3.10;;;2.25;;
4430;SDS011;2228;48.140;11.488;2023-07-13T06:48:59;7.88;;;2.40;;
4430;SDS011;2228;48.140;11.488;2023-07-13T06:51:26;5.30;;;1.98;;
4430;SDS011;2228;48.140;11.488;2023-07-13T06:53:53;4.80;;;2.13;;
4430;SDS011;2228;48.140;11.488;2023-07-13T06:56:21;4.32;;;2.28;;
4430;SDS011;2228;48.140;11.488;2023-07-13T06:58:48;3.80;;;2.35;;
4430;SDS011;2228;48.140;11.488;2023-07-13T07:01:15;8.20;;;2.80;;
4430;SDS011;2228;48.140;11.488;2023-07-13T07:03:41;5.00;;;2.20;;
4430;SDS011;2228;48.140;11.488;2023-07-13T07:06:12;5.90;;;2.13;;
4430;SDS011;2228;48.140;11.488;2023-07-13T07:08:42;3.15;;;2.20;;
4430;SDS011;2228;48.140;11.488;2023-07-13T07:11:11;4.05;;;2.03;;
4430;SDS011;2228;48.140;11.488;2023-07-13T07:13:40;3.90;;;2.00;;
4430;SDS011;2228;48.140;11.488;2023-07-13T07:16:07;7.32;;;3.00;;
4430;SDS011;2228;48.140;11.488;2023-07-13T07:18:34;6.18;;;2.30;;
4430;SDS011;2228;48.140;11.488;2023-07-13T07:21:01;3.70;;;2.10;;
4430;SDS011;2228;48.140;11.488;2023-07-13T07:23:29;5.50;;;1.90;;
4430;SDS011;2228;48.140;11.488;2023-07-13T07:25:56;4.70;;;2.40;;
4430;SDS011;2228;48.140;11.488;2023-07-13T07:28:24;5.45;;;2.20;;
4430;SDS011;2228;48.140;11.488;2023-07-13T07:30:53;8.75;;;2.10;;
4430;SDS011;2228;48.140;11.488;2023-07-13T07:33:22;7.80;;;2.40;;
4430;SDS011;2228;48.140;11.488;2023-07-13T07:35:49;4.90;;;2.20;;
4430;SDS011;2228;48.140;11.488;2023-07-13T07:38:16;5.05;;;1.92;;
4430;SDS011;2228;48.140;11.488;2023-07-13T07:40:44;5.40;;;2.50;;
4430;SDS011;2228;48.140;11.488;2023-07-13T07:43:11;4.37;;;2.40;;
4430;SDS011;2228;48.140;11.488;2023-07-13T07:45:38;7.75;;;2.28;;
4430;SDS011;2228;48.140;11.488;2023-07-13T07:48:06;4.55;;;2.45;;
4430;SDS011;2228;48.140;11.488;2023-07-13T07:50:34;3.67;;;2.25;;
4430;SDS011;2228;48.140;11.488;2023-07-13T07:53:01;3.60;;;2.53;;
4430;SDS011;2228;48.140;11.488;2023-07-13T07:55:32;4.65;;;2.50;;
4430;SDS011;2228;48.140;11.488;2023-07-13T07:58:01;6.07;;;2.15;;
4430;SDS011;2228;48.140;11.488;2023-07-13T08:00:28;6.25;;;2.13;;
4430;SDS011;2228;48.140;11.488;2023-07-13T08:02:56;4.93;;;2.10;;
4430;SDS011;2228;48.140;11.488;2023-07-13T08:05:23;3.20;;;2.07;;
4430;SDS011;2228;48.140;11.488;2023-07-13T08:07:51;5.00;;;2.00;;
4430;SDS011;2228;48.140;11.488;2023-07-13T08:10:18;4.60;;;2.10;;
4430;SDS011;2228;48.140;11.488;2023-07-13T08:12:45;4.05;;;2.05;;
4430;SDS011;2228;48.140;11.488;2023-07-13T08:15:15;5.10;;;2.00;;
4430;SDS011;2228;48.140;11.488;2023-07-13T08:17:43;4.40;;;2.10;;
4430;SDS011;2228;48.140;11.488;2023-07-13T08:20:10;6.85;;;2.50;;
4430;SDS011;2228;48.140;11.488;2023-07-13T08:22:37;5.90;;;2.50;;
4430;SDS011;2228;48.140;11.488;2023-07-13T08:25:04;5.13;;;2.20;;
4430;SDS011;2228;48.140;11.488;2023-07-13T08:27:32;5.60;;;1.80;;
4430;SDS011;2228;48.140;11.488;2023-07-13T08:29:59;6.80;;;2.40;;
4430;SDS011;2228;48.140;11.488;2023-07-13T08:32:28;4.25;;;2.00;;
4430;SDS011;2228;48.140;11.488;2023-07-13T08:34:54;4.72;;;2.00;;
4430;SDS011;2228;48.140;11.488;2023-07-13T08:37:21;5.63;;;1.60;;
4430;SDS011;2228;48.140;11.488;2023-07-13T08:39:48;4.33;;;1.90;;
4430;SDS011;2228;48.140;11.488;2023-07-13T08:42:18;4.00;;;1.60;;
4430;SDS011;2228;48.140;11.488;2023-07-13T08:44:56;3.80;;;1.70;;
4430;SDS011;2228;48.140;11.488;2023-07-13T08:47:31;6.93;;;1.80;;
4430;SDS011;2228;48.140;11.488;2023-07-13T08:50:02;5.40;;;1.73;;
4430;SDS011;2228;48.140;11.488;2023-07-13T08:52:30;2.58;;;1.30;;
4430;SDS011;2228;48.140;11.488;2023-07-13T08:55:02;4.82;;;1.60;;
4430;SDS011;2228;48.140;11.488;2023-07-13T08:57:35;2.60;;;1.50;;
4430;SDS011;2228;48.140;11.488;2023-07-13T09:00:04;5.57;;;1.70;;
4430;SDS011;2228;48.140;11.488;2023-07-13T09:02:39;5.00;;;1.70;;
4430;SDS011;2228;48.140;11.488;2023-07-13T09:05:12;3.58;;;1.40;;
4430;SDS011;2228;48.140;11.488;2023-07-13T09:07:44;3.10;;;1.70;;
4430;SDS011;2228;48.140;11.488;2023-07-13T09:10:23;2.97;;;1.90;;
4430;SDS011;2228;48.140;11.488;2023-07-13T09:12:59;2.60;;;1.65;;
4430;SDS011;2228;48.140;11.488;2023-07-13T09:15:39;3.08;;;1.58;;
4430;SDS011;2228;48.140;11.488;2023-07-13T09:18:12;5.50;;;1.83;;
4430;SDS011;2228;48.140;11.488;2023-07-13T09:20:44;5.40;;;1.50;;
4430;SDS011;2228;48.140;11.488;2023-07-13T09:23:15;5.78;;;1.40;;
4430;SDS011;2228;48.140;11.488;2023-07-13T09:25:45;2.90;;;1.50;;
4430;SDS011;2228;48.140;11.488;2023-07-13T09:28:17;3.50;;;1.60;;
4430;SDS011;2228;48.140;11.488;2023-07-13T09:30:50;4.50;;;1.10;;
4430;SDS011;2228;48.140;11.488;2023-07-13T09:33:21;3.80;;;1.40;;
4430;SDS011;2228;48.140;11.488;2023-07-13T09:35:49;4.10;;;1.63;;
4430;SDS011;2228;48.140;11.488;2023-07-13T09:38:16;3.35;;;1.33;;
4430;SDS011;2228;48.140;11.488;2023-07-13T09:40:53;3.20;;;1.20;;
4430;SDS011;2228;48.140;11.488;2023-07-13T09:43:27;2.00;;;1.30;;
4430;SDS011;2228;48.140;11.488;2023-07-13T09:45:54;13.32;;;1.70;;
4430;SDS011;2228;48.140;11.488;2023-07-13T09:48:23;4.13;;;1.50;;
4430;SDS011;2228;48.140;11.488;2023-07-13T09:50:53;5.47;;;1.80;;
4430;SDS011;2228;48.140;11.488;2023-07-13T09:53:22;3.17;;;1.40;;
4430;SDS011;2228;48.140;11.488;2023-07-13T09:55:49;4.35;;;1.42;;
4430;SDS011;2228;48.140;11.488;2023-07-13T09:58:17;6.13;;;1.52;;
4430;SDS011;2228;48.140;11.488;2023-07-13T10:00:54;2.63;;;1.20;;
4430;SDS011;2228;48.140;11.488;2023-07-13T10:03:25;2.00;;;1.52;;
4430;SDS011;2228;48.140;11.488;2023-07-13T10:05:53;3.70;;;1.70;;
4430;SDS011;2228;48.140;11.488;2023-07-13T10:08:23;2.30;;;1.20;;
4430;SDS011;2228;48.140;11.488;2023-07-13T10:10:53;1.65;;;1.10;;
4430;SDS011;2228;48.140;11.488;2023-07-13T10:13:35;3.35;;;1.15;;
4430;SDS011;2228;48.140;11.488;2023-07-13T10:16:04;3.05;;;1.30;;
4430;SDS011;2228;48.140;11.488;2023-07-13T10:18:36;2.88;;;1.35;;
4430;SDS011;2228;48.140;11.488;2023-07-13T10:21:11;3.80;;;1.70;;
4430;SDS011;2228;48.140;11.488;2023-07-13T10:23:39;3.40;;;1.30;;
4430;SDS011;2228;48.140;11.488;2023-07-13T10:26:09;4.93;;;1.02;;
4430;SDS011;2228;48.140;11.488;2023-07-13T10:28:41;3.80;;;1.10;;
4430;SDS011;2228;48.140;11.488;2023-07-13T10:31:13;3.25;;;1.40;;
4430;SDS011;2228;48.140;11.488;2023-07-13T10:33:43;7.60;;;1.40;;
4430;SDS011;2228;48.140;11.488;2023-07-13T10:36:14;6.20;;;2.20;;
4430;SDS011;2228;48.140;11.488;2023-07-13T10:38:50;3.90;;;1.80;;
4430;SDS011;2228;48.140;11.488;2023-07-13T10:41:19;6.07;;;1.27;;
4430;SDS011;2228;48.140;11.488;2023-07-13T10:43:49;6.25;;;2.45;;
4430;SDS011;2228;48.140;11.488;2023-07-13T10:46:19;2.95;;;1.55;;
4430;SDS011;2228;48.140;11.488;2023-07-13T10:48:50;2.70;;;1.30;;
4430;SDS011;2228;48.140;11.488;2023-07-13T10:51:21;2.38;;;1.30;;
4430;SDS011;2228;48.140;11.488;2023-07-13T10:54:10;4.72;;;1.70;;
4430;SDS011;2228;48.140;11.488;2023-07-13T10:56:42;4.03;;;1.30;;
4430;SDS011;2228;48.140;11.488;2023-07-13T10:59:10;3.40;;;1.20;;
4430;SDS011;2228;48.140;11.488;2023-07-13T11:01:46;1.98;;;1.55;;
4430;SDS011;2228;48.140;11.488;2023-07-13T11:04:20;2.60;;;1.40;;
4430;SDS011;2228;48.140;11.488;2023-07-13T11:06:50;3.88;;;1.30;;
4430;SDS011;2228;48.140;11.488;2023-07-13T11:09:32;6.75;;;1.70;;
4430;SDS011;2228;48.140;11.488;2023-07-13T11:12:06;3.65;;;1.38;;
4430;SDS011;2228;48.140;11.488;2023-07-13T11:14:42;3.80;;;1.20;;
4430;SDS011;2228;48.140;11.488;2023-07-13T11:20:18;2.70;;;1.40;;
4430;SDS011;2228;48.140;11.488;2023-07-13T11:22:49;3.67;;;1.05;;
4430;SDS011;2228;48.140;11.488;2023-07-13T11:25:25;2.78;;;1.17;;
4430;SDS011;2228;48.140;11.488;2023-07-13T11:28:07;3.13;;;1.33;;
4430;SDS011;2228;48.140;11.488;2023-07-13T11:30:43;4.50;;;1.20;;
4430;SDS011;2228;48.140;11.488;2023-07-13T11:33:15;2.50;;;1.00;;
4430;SDS011;2228;48.140;11.488;2023-07-13T11:35:59;4.45;;;2.38;;
4430;SDS011;2228;48.140;11.488;2023-07-13T11:38:33;2.28;;;1.00;;
4430;SDS011;2228;48.140;11.488;2023-07-13T11:41:04;2.75;;;1.20;;
4430;SDS011;2228;48.140;11.488;2023-07-13T11:43:32;1.45;;;1.00;;
4430;SDS011;2228;48.140;11.488;2023-07-13T11:48:44;2.95;;;1.30;;
4430;SDS011;2228;48.140;11.488;2023-07-13T11:51:17;3.40;;;1.00;;
4430;SDS011;2228;48.140;11.488;2023-07-13T11:53:48;4.50;;;1.20;;
4430;SDS011;2228;48.140;11.488;2023-07-13T11:56:16;2.90;;;1.13;;
4430;SDS011;2228;48.140;11.488;2023-07-13T11:58:44;2.37;;;1.20;;
4430;SDS011;2228;48.140;11.488;2023-07-13T12:01:16;2.28;;;1.25;;
4430;SDS011;2228;48.140;11.488;2023-07-13T12:03:47;3.70;;;1.10;;
4430;SDS011;2228;48.140;11.488;2023-07-13T12:06:25;3.60;;;1.20;;
4430;SDS011;2228;48.140;11.488;2023-07-13T12:08:55;2.00;;;1.00;;
4430;SDS011;2228;48.140;11.488;2023-07-13T12:11:24;2.63;;;1.00;;
4430;SDS011;2228;48.140;11.488;2023-07-13T12:13:51;5.70;;;1.25;;
4430;SDS011;2228;48.140;11.488;2023-07-13T12:16:20;2.77;;;1.30;;
4430;SDS011;2228;48.140;11.488;2023-07-13T12:18:52;2.10;;;1.25;;
4430;SDS011;2228;48.140;11.488;2023-07-13T12:21:22;3.17;;;1.30;;
4430;SDS011;2228;48.140;11.488;2023-07-13T12:23:54;3.38;;;1.23;;
4430;SDS011;2228;48.140;11.488;2023-07-13T12:26:21;2.08;;;1.35;;
4430;SDS011;2228;48.140;11.488;2023-07-13T12:28:48;1.98;;;1.38;;
4430;SDS011;2228;48.140;11.488;2023-07-13T12:31:25;2.63;;;1.40;;
4430;SDS011;2228;48.140;11.488;2023-07-13T12:34:02;5.20;;;1.30;;
4430;SDS011;2228;48.140;11.488;2023-07-13T12:36:34;2.43;;;1.40;;
4430;SDS011;2228;48.140;11.488;2023-07-13T12:39:04;5.57;;;1.70;;
4430;SDS011;2228;48.140;11.488;2023-07-13T12:41:41;4.00;;;1.60;;
4430;SDS011;2228;48.140;11.488;2023-07-13T12:44:13;4.30;;;1.30;;
4430;SDS011;2228;48.140;11.488;2023-07-13T12:46:56;3.17;;;1.30;;
4430;SDS011;2228;48.140;11.488;2023-07-13T12:49:31;2.70;;;1.20;;
4430;SDS011;2228;48.140;11.488;2023-07-13T12:52:02;3.25;;;1.73;;
4430;SDS011;2228;48.140;11.488;2023-07-13T12:54:31;2.75;;;1.20;;
4430;SDS011;2228;48.140;11.488;2023-07-13T12:56:59;3.97;;;1.30;;
4430;SDS011;2228;48.140;11.488;2023-07-13T12:59:31;5.07;;;1.30;;
4430;SDS011;2228;48.140;11.488;2023-07-13T13:02:01;3.35;;;1.50;;
4430;SDS011;2228;48.140;11.488;2023-07-13T13:04:38;3.73;;;1.03;;
4430;SDS011;2228;48.140;11.488;2023-07-13T13:07:09;3.10;;;1.10;;
4430;SDS011;2228;48.140;11.488;2023-07-13T13:09:36;1.80;;;1.10;;
4430;SDS011;2228;48.140;11.488;2023-07-13T13:12:03;1.95;;;1.10;;
4430;SDS011;2228;48.140;11.488;2023-07-13T13:14:31;3.53;;;1.10;;
4430;SDS011;2228;48.140;11.488;2023-07-13T13:16:58;2.92;;;0.95;;
4430;SDS011;2228;48.140;11.488;2023-07-13T13:19:27;3.38;;;1.13;;
4430;SDS011;2228;48.140;11.488;2023-07-13T13:21:56;1.27;;;1.17;;
4430;SDS011;2228;48.140;11.488;2023-07-13T13:24:27;2.50;;;1.60;;
4430;SDS011;2228;48.140;11.488;2023-07-13T13:26:54;3.10;;;1.10;;
4430;SDS011;2228;48.140;11.488;2023-07-13T13:29:23;2.80;;;1.20;;
4430;SDS011;2228;48.140;11.488;2023-07-13T13:31:51;2.03;;;1.30;;
4430;SDS011;2228;48.140;11.488;2023-07-13T13:34:19;2.30;;;1.10;;
4430;SDS011;2228;48.140;11.488;2023-07-13T13:36:48;2.27;;;1.00;;
4430;SDS011;2228;48.140;11.488;2023-07-13T13:39:20;3.00;;;1.40;;
4430;SDS011;2228;48.140;11.488;2023-07-13T13:41:51;3.15;;;1.00;;
4430;SDS011;2228;48.140;11.488;2023-07-13T13:44:19;1.90;;;1.10;;
4430;SDS011;2228;48.140;11.488;2023-07-13T13:46:47;2.35;;;1.10;;
4430;SDS011;2228;48.140;11.488;2023-07-13T13:49:18;2.30;;;1.10;;
4430;SDS011;2228;48.140;11.488;2023-07-13T13:51:47;3.40;;;1.10;;
4430;SDS011;2228;48.140;11.488;2023-07-13T13:54:16;1.40;;;1.10;;
4430;SDS011;2228;48.140;11.488;2023-07-13T13:56:45;2.13;;;1.17;;
4430;SDS011;2228;48.140;11.488;2023-07-13T13:59:17;3.13;;;1.10;;
4430;SDS011;2228;48.140;11.488;2023-07-13T14:01:45;1.67;;;1.20;;
4430;SDS011;2228;48.140;11.488;2023-07-13T14:04:15;6.65;;;1.50;;
4430;SDS011;2228;48.140;11.488;2023-07-13T14:06:44;1.45;;;1.05;;
4430;SDS011;2228;48.140;11.488;2023-07-13T14:09:11;2.90;;;1.00;;
4430;SDS011;2228;48.140;11.488;2023-07-13T14:11:42;3.17;;;1.27;;
4430;SDS011;2228;48.140;11.488;2023-07-13T14:14:09;4.10;;;1.10;;
4430;SDS011;2228;48.140;11.488;2023-07-13T14:16:42;1.90;;;1.20;;
4430;SDS011;2228;48.140;11.488;2023-07-13T14:19:10;2.17;;;1.00;;
4430;SDS011;2228;48.140;11.488;2023-07-13T14:21:39;4.70;;;1.45;;
4430;SDS011;2228;48.140;11.488;2023-07-13T14:24:06;2.17;;;1.20;;
4430;SDS011;2228;48.140;11.488;2023-07-13T14:26:35;2.50;;;1.10;;
4430;SDS011;2228;48.140;11.488;2023-07-13T14:29:05;3.00;;;1.10;;
4430;SDS011;2228;48.140;11.488;2023-07-13T14:31:38;1.33;;;0.90;;
4430;SDS011;2228;48.140;11.488;2023-07-13T14:34:07;1.80;;;1.20;;
4430;SDS011;2228;48.140;11.488;2023-07-13T14:36:36;2.20;;;1.10;;
4430;SDS011;2228;48.140;11.488;2023-07-13T14:39:10;3.85;;;1.10;;
4430;SDS011;2228;48.140;11.488;2023-07-13T14:41:39;1.50;;;1.10;;
4430;SDS011;2228;48.140;11.488;2023-07-13T14:44:12;2.50;;;1.08;;
4430;SDS011;2228;48.140;11.488;2023-07-13T14:46:40;2.00;;;1.10;;
4430;SDS011;2228;48.140;11.488;2023-07-13T14:49:12;4.25;;;1.10;;
4430;SDS011;2228;48.140;11.488;2023-07-13T14:51:42;1.30;;;1.00;;
4430;SDS011;2228;48.140;11.488;2023-07-13T14:54:09;3.17;;;1.10;;
4430;SDS011;2228;48.140;11.488;2023-07-13T14:56:36;3.95;;;1.00;;
4430;SDS011;2228;48.140;11.488;2023-07-13T14:59:03;1.90;;;0.90;;
4430;SDS011;2228;48.140;11.488;2023-07-13T15:01:32;1.52;;;1.13;;
4430;SDS011;2228;48.140;11.488;2023-07-13T15:04:00;1.75;;;0.90;;
4430;SDS011;2228;48.140;11.488;2023-07-13T15:06:29;4.70;;;1.20;;
4430;SDS011;2228;48.140;11.488;2023-07-13T15:08:56;3.90;;;1.10;;
4430;SDS011;2228;48.140;11.488;2023-07-13T15:11:23;2.38;;;1.00;;
4430;SDS011;2228;48.140;11.488;2023-07-13T15:13:51;2.90;;;1.20;;
4430;SDS011;2228;48.140;11.488;2023-07-13T15:16:18;2.13;;;1.02;;